Time;durP1;ratioP1;P1;durP2;ratioP2;P2;SDS_P1;SDS_P2;PMS_P1;PMS_P2;Temp;Humidity;BMP_temperature;BMP_pressure;BME280_temperature;BME280_humidity;BME280_pressure;Samples;Min_cycle;Max_cycle;Signal;HPM_P1;HPM_P2
2021/08/23 00:00:22;;;;;;;19.60;12.30;;;;;;;13.88;79.44;97649.98;116220;1184;59545;-73
2021/08/23 00:03:01;;;;;;;15.20;11.50;;;;;;;13.86;79.75;97652.42;116126;1184;70369;-73
2021/08/23 00:05:33;;;;;;;14.20;11.00;;;;;;;13.86;80.93;97650.70;116162;1184;67456;-74
2021/08/23 00:08:06;;;;;;;15.70;10.80;;;;;;;13.86;80.79;97649.58;116144;1184;68534;-74
2021/08/23 00:10:38;;;;;;;16.50;10.50;;;;;;;13.86;80.36;97643.92;116205;1184;59634;-74
2021/08/23 00:13:10;;;;;;;16.30;10.90;;;;;;;13.88;81.18;97646.30;115957;1184;59522;-74
2021/08/23 00:15:41;;;;;;;18.60;10.20;;;;;;;13.88;80.34;97642.32;116169;1184;71381;-74
2021/08/23 00:18:13;;;;;;;16.10;11.10;;;;;;;13.88;80.95;97642.81;116178;1184;68441;-73
2021/08/23 00:20:50;;;;;;;17.00;11.50;;;;;;;13.85;79.47;97639.34;116045;1185;68736;-73
2021/08/23 00:23:25;;;;;;;17.60;11.90;;;;;;;13.83;79.64;97637.60;116079;1181;59495;-74
2021/08/23 00:25:56;;;;;;;16.30;11.10;;;;;;;13.81;80.09;97639.33;116134;1180;59555;-71
2021/08/23 00:28:27;;;;;;;13.70;10.80;;;;;;;13.79;80.44;97638.30;116028;1179;71314;-74
2021/08/23 00:30:58;;;;;;;17.10;11.50;;;;;;;13.74;80.53;97639.12;116034;1181;69329;-75
2021/08/23 00:33:30;;;;;;;16.60;11.30;;;;;;;13.71;80.06;97642.60;116186;1184;68460;-74
2021/08/23 00:36:01;;;;;;;24.30;15.10;;;;;;;13.66;80.80;97643.66;116163;1179;59546;-74
2021/08/23 00:38:32;;;;;;;21.30;14.90;;;;;;;13.62;80.09;97643.31;116009;1182;59595;-75
2021/08/23 00:41:04;;;;;;;17.20;11.40;;;;;;;13.58;81.47;97642.75;116207;1182;71840;-72
2021/08/23 00:43:35;;;;;;;16.90;11.10;;;;;;;13.55;80.94;97644.70;116161;1184;69141;-73
2021/08/23 00:46:06;;;;;;;16.10;10.50;;;;;;;13.51;82.30;97638.89;116161;1179;69239;-75
2021/08/23 00:48:37;;;;;;;14.60;10.40;;;;;;;13.49;82.17;97641.34;116178;1181;59553;-74
2021/08/23 00:51:08;;;;;;;15.20;10.70;;;;;;;13.49;82.85;97637.55;116191;1183;59546;-74
2021/08/23 00:53:39;;;;;;;12.30;9.90;;;;;;;13.48;81.71;97637.81;116162;1184;71297;-75
2021/08/23 00:56:18;;;;;;;17.10;12.00;;;;;;;13.47;80.67;97638.58;116049;1184;69076;-75
2021/08/23 00:58:50;;;;;;;19.20;12.70;;;;;;;13.41;81.77;97638.16;116153;1179;69186;-75
2021/08/23 01:01:58;;;;;;;21.00;15.10;;;;;;;13.36;82.25;97637.09;116291;1182;59594;-73
2021/08/23 01:04:40;;;;;;;24.40;16.20;;;;;;;13.33;82.01;97635.44;116108;1184;59546;-73
2021/08/23 01:07:15;;;;;;;21.80;16.10;;;;;;;13.32;82.23;97634.47;116136;1179;70792;-71
2021/08/23 01:09:56;;;;;;;25.60;18.80;;;;;;;13.31;81.40;97632.21;116139;1184;69025;-72
2021/08/23 01:12:29;;;;;;;28.00;21.10;;;;;;;13.25;81.64;97630.17;116144;1183;68263;-73
2021/08/23 01:15:01;;;;;;;31.20;23.30;;;;;;;13.19;81.05;97632.12;116185;1184;59546;-73
2021/08/23 01:17:33;;;;;;;26.90;19.50;;;;;;;13.15;82.02;97624.71;116186;1181;59561;-73
2021/08/23 01:20:07;;;;;;;22.50;16.30;;;;;;;13.13;82.24;97627.98;116194;1184;70739;-73
2021/08/23 01:22:47;;;;;;;21.50;14.60;;;;;;;13.12;81.91;97626.12;116222;1182;69188;-73
2021/08/23 01:25:28;;;;;;;20.00;12.50;;;;;;;13.11;81.56;97622.64;116035;1184;68482;-73
2021/08/23 01:28:07;;;;;;;13.90;10.50;;;;;;;13.10;82.45;97624.88;116048;1180;59550;-71
2021/08/23 01:30:59;;;;;;;15.90;10.60;;;;;;;13.11;82.49;97626.20;116038;1179;59565;-73
2021/08/23 01:33:31;;;;;;;17.00;10.40;;;;;;;13.12;82.10;97620.55;116132;1181;71354;-74
2021/08/23 01:36:03;;;;;;;14.80;9.60;;;;;;;13.13;82.93;97619.17;116117;1184;67587;-74
2021/08/23 01:38:37;;;;;;;13.80;10.50;;;;;;;13.14;82.51;97620.57;115947;1184;69228;-74
2021/08/23 01:41:09;;;;;;;15.30;10.50;;;;;;;13.15;81.97;97618.76;116110;1184;59501;-74
2021/08/23 01:43:40;;;;;;;14.70;11.40;;;;;;;13.16;81.94;97619.13;116144;1183;59481;-74
2021/08/23 01:46:12;;;;;;;14.20;11.00;;;;;;;13.13;81.44;97617.23;116210;1179;71337;-74
2021/08/23 01:48:43;;;;;;;14.90;10.70;;;;;;;13.09;81.38;97611.66;116173;1179;69164;-75
2021/08/23 01:51:16;;;;;;;16.90;11.20;;;;;;;13.04;81.63;97613.60;115968;1181;69039;-74
2021/08/23 01:53:48;;;;;;;13.70;10.50;;;;;;;12.98;81.87;97610.64;115965;1181;59552;-74
2021/08/23 01:56:20;;;;;;;15.50;10.30;;;;;;;12.95;82.17;97608.61;116140;1184;59552;-75
2021/08/23 01:58:51;;;;;;;17.80;10.20;;;;;;;12.92;82.11;97605.52;116141;1184;71698;-74
2021/08/23 02:01:23;;;;;;;17.70;10.80;;;;;;;12.90;83.09;97605.40;116173;1184;68416;-74
2021/08/23 02:03:54;;;;;;;14.70;9.80;;;;;;;12.92;83.81;97607.27;116046;1181;68343;-74
2021/08/23 02:06:26;;;;;;;12.70;9.40;;;;;;;12.91;83.32;97608.25;116049;1184;59561;-74
2021/08/23 02:08:59;;;;;;;14.30;10.20;;;;;;;12.89;83.08;97607.61;116172;1184;59505;-72
2021/08/23 02:11:31;;;;;;;13.40;10.00;;;;;;;12.89;83.86;97609.51;116210;1181;71375;-72
2021/08/23 02:14:05;;;;;;;13.00;9.00;;;;;;;12.89;82.93;97607.68;116184;1184;68412;-72
2021/08/23 02:16:39;;;;;;;13.90;9.40;;;;;;;12.90;82.55;97605.52;116152;1184;68992;-75
2021/08/23 02:19:11;;;;;;;12.10;8.60;;;;;;;12.91;83.32;97606.67;116036;1181;59561;-75
2021/08/23 02:21:50;;;;;;;13.40;10.50;;;;;;;12.91;83.97;97603.77;116052;1185;59551;-74
2021/08/23 02:24:22;;;;;;;24.50;18.30;;;;;;;12.89;83.02;97601.87;116231;1179;71213;-74
2021/08/23 02:26:53;;;;;;;28.60;20.00;;;;;;;12.83;81.98;97600.76;116181;1179;69067;-74
2021/08/23 02:29:23;;;;;;;;;;;;;;;12.71;81.64;97598.86;116217;1184;68436;-74
2021/08/23 02:31:55;;;;;;;21.30;15.40;;;;;;;12.60;81.96;97594.67;116197;1180;59508;-75
2021/08/23 02:34:27;;;;;;;22.30;16.90;;;;;;;12.54;81.95;97597.17;116237;1184;59504;-74
2021/08/23 02:36:59;;;;;;;21.80;15.70;;;;;;;12.49;81.51;97597.13;116136;1183;71400;-74
2021/08/23 02:39:30;;;;;;;19.80;15.50;;;;;;;12.46;82.37;97597.48;115990;1182;69207;-74
2021/08/23 02:42:02;;;;;;;22.00;15.90;;;;;;;12.47;83.69;97602.66;116112;1184;69051;-74
2021/08/23 02:44:33;;;;;;;23.00;18.20;;;;;;;12.48;83.52;97603.73;116131;1181;59540;-73
2021/08/23 02:47:05;;;;;;;19.70;14.90;;;;;;;12.48;82.58;97603.02;116209;1184;59511;-74
2021/08/23 02:49:35;;;;;;;23.60;16.00;;;;;;;12.48;83.48;97607.37;116213;1184;71342;-73
2021/08/23 02:52:07;;;;;;;20.40;15.80;;;;;;;12.50;83.21;97607.32;116067;1184;68423;-74
2021/08/23 02:54:38;;;;;;;22.30;15.20;;;;;;;12.52;83.54;97605.33;116184;1184;68258;-74
2021/08/23 02:57:09;;;;;;;19.60;14.20;;;;;;;12.55;83.68;97607.52;116171;1182;59531;-74
2021/08/23 02:59:41;;;;;;;19.10;13.20;;;;;;;12.57;83.13;97607.88;116073;1182;59501;-74
2021/08/23 03:02:13;;;;;;;20.50;14.50;;;;;;;12.60;83.55;97602.52;116195;1184;71680;-72
2021/08/23 03:04:45;;;;;;;17.30;12.60;;;;;;;12.63;83.40;97601.06;116262;1183;68237;-74
2021/08/23 03:07:16;;;;;;;18.30;13.60;;;;;;;12.67;83.85;97601.09;116211;1184;69213;-74
2021/08/23 03:09:48;;;;;;;26.80;12.20;;;;;;;12.69;83.04;97603.16;116140;1183;59538;-74
2021/08/23 03:12:19;;;;;;;17.80;11.80;;;;;;;12.70;82.55;97606.70;116167;1180;59576;-74
2021/08/23 03:14:50;;;;;;;13.50;10.20;;;;;;;12.69;82.33;97604.80;116225;1180;71447;-74
2021/08/23 03:17:21;;;;;;;15.00;9.70;;;;;;;12.69;81.97;97599.83;116181;1183;69147;-74
2021/08/23 03:19:53;;;;;;;15.40;11.30;;;;;;;12.68;82.20;97601.59;116195;1182;69204;-74
2021/08/23 03:22:25;;;;;;;13.80;10.50;;;;;;;12.69;82.95;97607.27;116125;1179;59570;-74
2021/08/23 03:24:58;;;;;;;14.90;10.50;;;;;;;12.69;83.02;97604.27;116182;1183;59529;-73
2021/08/23 03:27:29;;;;;;;14.90;10.00;;;;;;;12.69;83.25;97599.44;116199;1184;70622;-74
2021/08/23 03:30:00;;;;;;;14.60;10.10;;;;;;;12.68;83.21;97597.02;116148;1184;69177;-74
2021/08/23 03:32:32;;;;;;;11.60;9.20;;;;;;;12.65;83.44;97600.76;116194;1179;69195;-73
2021/08/23 03:35:05;;;;;;;14.30;10.30;;;;;;;12.62;83.43;97598.55;116168;1184;59531;-74
2021/08/23 03:37:36;;;;;;;15.00;10.80;;;;;;;12.63;84.05;97598.00;116100;1181;59597;-74
2021/08/23 03:40:08;;;;;;;12.70;9.80;;;;;;;12.63;84.50;97600.35;116135;1180;71822;-73
2021/08/23 03:42:41;;;;;;;13.80;9.40;;;;;;;12.64;83.95;97599.05;115971;1184;69031;-73
2021/08/23 03:45:13;;;;;;;13.90;10.10;;;;;;;12.67;84.29;97597.20;116146;1184;69218;-74
2021/08/23 03:47:45;;;;;;;11.90;9.20;;;;;;;12.69;84.04;97601.49;116202;1181;59575;-74
2021/08/23 03:50:17;;;;;;;14.40;9.80;;;;;;;12.70;83.40;97600.58;116190;1184;59566;-73
2021/08/23 03:52:49;;;;;;;15.10;9.90;;;;;;;12.74;83.98;97603.39;116204;1181;70996;-73
2021/08/23 03:55:22;;;;;;;13.00;9.10;;;;;;;12.76;83.39;97604.60;116216;1184;68395;-74
2021/08/23 03:57:53;;;;;;;13.30;9.10;;;;;;;12.80;83.68;97604.60;116206;1180;68454;-73
2021/08/23 04:00:25;;;;;;;17.10;9.70;;;;;;;12.86;83.98;97603.18;116215;1179;59530;-74
2021/08/23 04:02:57;;;;;;;14.70;9.20;;;;;;;12.89;83.43;97606.33;116216;1184;59510;-74
2021/08/23 04:05:28;;;;;;;13.00;9.50;;;;;;;12.93;83.73;97607.23;116254;1183;71434;-74
2021/08/23 04:07:59;;;;;;;12.40;9.50;;;;;;;12.97;83.48;97607.88;116228;1181;68212;-73
2021/08/23 04:10:30;;;;;;;13.20;9.40;;;;;;;13.05;82.95;97613.17;116225;1183;69207;-74
2021/08/23 04:13:02;;;;;;;12.30;8.80;;;;;;;13.10;82.75;97607.96;116216;1183;59645;-74
2021/08/23 04:15:33;;;;;;;12.70;8.50;;;;;;;13.11;82.96;97610.08;116203;1184;59552;-74
2021/08/23 04:18:04;;;;;;;9.50;7.30;;;;;;;13.14;82.69;97610.22;116030;1181;70682;-73
2021/08/23 04:20:36;;;;;;;13.60;9.10;;;;;;;13.18;83.09;97608.90;116085;1182;69120;-73
2021/08/23 04:23:10;;;;;;;11.50;8.60;;;;;;;13.20;82.56;97607.07;116071;1184;69106;-74
2021/08/23 04:25:42;;;;;;;14.60;8.00;;;;;;;13.24;82.53;97604.92;116184;1181;59578;-73
2021/08/23 04:28:13;;;;;;;11.70;8.40;;;;;;;13.31;82.90;97602.14;116209;1181;59592;-74
2021/08/23 04:30:44;;;;;;;;;;;;;;;13.41;82.51;97601.04;116044;1181;71143;-73
2021/08/23 04:33:16;;;;;;;13.40;7.50;;;;;;;13.52;82.16;97601.51;116223;1184;69623;-74
2021/08/23 04:35:46;;;;;;;16.60;8.80;;;;;;;13.74;81.68;97601.52;116214;1184;68649;-73
2021/08/23 04:38:18;;;;;;;13.30;8.50;;;;;;;14.00;80.61;97604.30;116213;1182;59654;-74
2021/08/23 04:40:49;;;;;;;10.40;7.70;;;;;;;14.29;80.34;97601.20;116208;1179;59588;-73
2021/08/23 04:43:20;;;;;;;10.50;7.60;;;;;;;14.66;79.13;97599.61;116023;1185;71475;-74
2021/08/23 04:45:51;;;;;;;12.60;8.50;;;;;;;15.04;77.21;97601.38;116053;1184;68989;-73
2021/08/23 04:48:22;;;;;;;9.90;7.60;;;;;;;15.36;76.19;97602.09;116121;1184;68769;-73
2021/08/23 04:50:54;;;;;;;11.90;8.20;;;;;;;15.68;75.56;97598.91;115973;1185;59646;-74
2021/08/23 04:53:27;;;;;;;14.20;7.50;;;;;;;16.06;75.42;97597.58;116216;1181;59502;-74
2021/08/23 04:55:57;;;;;;;11.20;7.10;;;;;;;16.46;73.77;97595.48;116256;1181;70359;-74
2021/08/23 04:58:28;;;;;;;11.50;7.00;;;;;;;16.67;71.06;97592.73;116050;1179;69173;-74
2021/08/23 05:00:58;;;;;;;;;;;;;;;17.00;72.22;97590.65;116193;1184;69211;-75
2021/08/23 05:03:30;;;;;;;12.50;6.50;;;;;;;17.37;72.23;97587.75;116206;1184;59518;-74
2021/08/23 05:06:01;;;;;;;16.20;7.00;;;;;;;17.69;69.48;97587.95;116241;1183;59552;-72
2021/08/23 05:08:32;;;;;;;15.70;8.10;;;;;;;17.92;68.24;97587.41;116163;1184;70594;-73
2021/08/23 05:11:03;;;;;;;16.70;8.00;;;;;;;18.07;67.58;97590.89;116001;1181;68403;-75
2021/08/23 05:13:35;;;;;;;23.60;9.10;;;;;;;18.05;66.88;97593.00;116197;1184;69043;-73
2021/08/23 05:16:06;;;;;;;20.40;9.40;;;;;;;17.97;66.91;97594.63;116175;1182;59572;-74
2021/08/23 05:18:37;;;;;;;20.90;9.80;;;;;;;17.92;67.19;97595.34;116275;1180;59566;-74
2021/08/23 05:21:08;;;;;;;27.00;9.30;;;;;;;17.98;67.37;97602.59;116212;1184;70565;-74
2021/08/23 05:23:38;;;;;;;20.70;8.50;;;;;;;18.15;66.79;97603.65;116231;1184;68396;-73
2021/08/23 05:26:09;;;;;;;17.00;9.20;;;;;;;18.30;66.79;97605.45;116301;1180;68445;-73
2021/08/23 05:28:40;;;;;;;16.20;8.40;;;;;;;18.39;65.60;97607.11;116137;1179;59564;-72
2021/08/23 05:31:11;;;;;;;18.10;8.40;;;;;;;18.36;64.77;97605.04;116211;1183;59498;-74
2021/08/23 05:33:42;;;;;;;11.90;7.40;;;;;;;18.53;65.12;97608.35;116225;1183;71338;-73
2021/08/23 05:36:13;;;;;;;9.80;7.10;;;;;;;18.58;65.02;97610.02;116161;1184;68834;-74
2021/08/23 05:38:44;;;;;;;11.50;6.60;;;;;;;18.68;63.53;97604.19;116144;1184;68327;-73
2021/08/23 05:41:15;;;;;;;13.50;6.90;;;;;;;18.83;63.38;97599.79;116065;1183;59578;-73
2021/08/23 05:43:47;;;;;;;15.60;7.50;;;;;;;18.90;63.13;97598.90;116183;1180;59544;-73
2021/08/23 05:46:23;;;;;;;16.00;7.40;;;;;;;19.17;62.74;97601.46;115973;1184;69584;-73
2021/08/23 05:48:54;;;;;;;15.50;6.60;;;;;;;19.49;62.62;97600.25;116181;1181;68555;-74
2021/08/23 05:51:25;;;;;;;14.10;6.30;;;;;;;19.83;61.83;97598.32;116141;1184;69224;-73
2021/08/23 05:53:56;;;;;;;11.90;6.40;;;;;;;20.33;61.44;97602.03;116126;1184;59486;-74
2021/08/23 05:56:27;;;;;;;10.10;6.60;;;;;;;20.77;59.20;97601.88;116157;1181;59550;-74
2021/08/23 05:58:58;;;;;;;14.30;6.90;;;;;;;21.12;58.92;97600.58;116156;1184;71352;-74
2021/08/23 06:01:29;;;;;;;18.90;6.80;;;;;;;21.28;57.79;97597.72;116160;1183;68987;-73
2021/08/23 06:04:00;;;;;;;20.90;7.70;;;;;;;21.73;57.99;97599.27;116177;1184;69021;-74
2021/08/23 06:06:33;;;;;;;19.10;6.90;;;;;;;22.21;55.28;97595.06;116162;1181;59560;-74
2021/08/23 06:09:04;;;;;;;13.60;6.30;;;;;;;22.49;54.72;97594.12;116151;1180;59539;-74
2021/08/23 06:11:34;;;;;;;16.90;6.90;;;;;;;22.99;53.05;97594.28;116195;1184;71380;-74
2021/08/23 06:14:05;;;;;;;16.30;7.10;;;;;;;23.12;52.18;97594.92;116049;1184;68405;-74
2021/08/23 06:16:36;;;;;;;15.80;6.30;;;;;;;23.33;52.67;97588.69;116199;1180;68491;-74
2021/08/23 06:19:07;;;;;;;10.20;5.30;;;;;;;23.32;52.24;97589.27;116191;1184;59557;-75
2021/08/23 06:21:37;;;;;;;9.00;5.60;;;;;;;23.26;51.54;97591.25;116235;1184;59568;-75
2021/08/23 06:24:08;;;;;;;15.30;6.10;;;;;;;23.41;50.41;97586.38;116118;1184;71389;-74
2021/08/23 06:26:39;;;;;;;10.50;5.80;;;;;;;23.81;49.48;97587.20;116229;1184;68364;-74
2021/08/23 06:29:10;;;;;;;9.40;5.60;;;;;;;24.24;48.12;97586.51;116188;1183;69259;-75
2021/08/23 06:31:41;;;;;;;11.60;5.40;;;;;;;24.67;47.32;97590.39;116249;1182;59559;-74
2021/08/23 06:34:12;;;;;;;9.60;4.90;;;;;;;25.04;45.81;97586.61;116351;1178;59538;-75
2021/08/23 06:36:44;;;;;;;9.20;5.30;;;;;;;25.33;44.70;97590.45;116286;1183;71253;-74
2021/08/23 06:39:15;;;;;;;9.20;5.00;;;;;;;25.56;44.09;97587.78;116289;1182;69186;-74
2021/08/23 06:41:50;;;;;;;10.70;5.40;;;;;;;25.60;43.22;97586.81;116250;1183;68313;-75
2021/08/23 06:44:21;;;;;;;10.70;5.50;;;;;;;25.65;43.64;97585.41;116306;1182;59571;-75
2021/08/23 06:46:53;;;;;;;12.30;5.40;;;;;;;25.74;43.20;97589.58;116298;1182;59514;-74
2021/08/23 06:49:23;;;;;;;13.00;5.40;;;;;;;25.97;43.33;97586.33;116290;1179;70175;-75
2021/08/23 06:51:54;;;;;;;11.50;5.90;;;;;;;26.27;43.71;97584.13;116270;1184;68405;-74
2021/08/23 06:54:25;;;;;;;9.10;5.70;;;;;;;26.36;42.96;97581.02;116166;1180;68240;-73
2021/08/23 06:56:55;;;;;;;8.10;4.90;;;;;;;26.75;42.67;97578.05;116287;1181;59546;-74
2021/08/23 06:59:27;;;;;;;8.30;5.70;;;;;;;26.74;41.64;97575.13;116276;1179;59518;-74
2021/08/23 07:01:58;;;;;;;7.70;4.70;;;;;;;26.74;41.58;97574.09;116230;1183;71194;-74
2021/08/23 07:04:29;;;;;;;13.30;5.70;;;;;;;26.87;41.99;97574.88;116240;1183;68508;-74
2021/08/23 07:07:02;;;;;;;7.10;4.70;;;;;;;26.88;41.48;97580.12;116278;1182;69021;-75
2021/08/23 07:09:33;;;;;;;8.60;5.10;;;;;;;26.97;41.37;97577.20;116264;1180;59552;-75
2021/08/23 07:12:04;;;;;;;8.00;5.30;;;;;;;27.12;41.37;97575.71;116304;1182;59471;-74
2021/08/23 07:14:36;;;;;;;9.60;5.60;;;;;;;27.06;41.36;97571.65;116244;1178;70340;-73
2021/08/23 07:17:08;;;;;;;7.70;5.30;;;;;;;27.18;41.24;97572.22;116300;1179;69106;-76
2021/08/23 07:19:39;;;;;;;7.20;5.50;;;;;;;27.26;41.19;97572.80;116293;1182;68518;-74
2021/08/23 07:22:23;;;;;;;7.40;5.50;;;;;;;27.74;40.72;97568.11;116207;1181;59500;-73
2021/08/23 07:24:54;;;;;;;18.20;6.10;;;;;;;27.90;40.51;97573.35;116197;1181;59599;-73
2021/08/23 07:27:25;;;;;;;7.90;5.30;;;;;;;28.27;39.51;97576.71;116246;1179;71371;-72
2021/08/23 07:29:57;;;;;;;7.90;5.50;;;;;;;28.35;39.06;97574.39;116292;1183;69301;-73
2021/08/23 07:32:32;;;;;;;8.10;5.30;;;;;;;28.14;39.32;97569.80;116196;1183;68807;-74
2021/08/23 07:35:04;;;;;;;8.80;5.70;;;;;;;28.54;39.60;97569.13;116316;1181;59610;-75
2021/08/23 07:37:37;;;;;;;15.30;6.50;;;;;;;28.78;38.11;97562.70;116293;1183;59523;-75
2021/08/23 07:40:08;;;;;;;9.90;5.40;;;;;;;29.04;37.88;97566.57;116281;1183;71827;-77
2021/08/23 07:42:39;;;;;;;11.80;5.70;;;;;;;29.00;37.38;97565.40;116226;1184;69140;-77
2021/08/23 07:45:11;;;;;;;8.60;5.90;;;;;;;29.24;37.11;97563.90;116246;1182;69226;-77
2021/08/23 07:47:44;;;;;;;9.00;5.60;;;;;;;29.31;36.90;97563.90;116230;1181;59484;-79
2021/08/23 07:50:18;;;;;;;10.00;6.20;;;;;;;28.97;37.85;97561.27;116299;1183;59500;-78
2021/08/23 07:52:57;;;;;;;7.80;5.40;;;;;;;29.14;37.99;97558.89;116224;1184;71194;-81
2021/08/23 07:55:28;;;;;;;11.00;5.40;;;;;;;29.46;37.36;97555.92;116330;1178;69167;-78
2021/08/23 07:57:59;;;;;;;9.80;5.50;;;;;;;29.65;37.13;97552.07;116302;1178;69446;-79
2021/08/23 08:00:34;;;;;;;8.40;5.50;;;;;;;29.72;36.98;97551.92;116295;1183;59526;-78
2021/08/23 08:03:06;;;;;;;9.20;5.90;;;;;;;29.97;36.44;97550.54;116312;1182;59534;-78
2021/08/23 08:05:39;;;;;;;9.00;5.60;;;;;;;29.87;36.50;97552.70;116322;1178;71154;-79
2021/08/23 08:08:14;;;;;;;10.40;5.70;;;;;;;30.00;36.45;97550.54;116246;1182;68593;-73
2021/08/23 08:10:56;;;;;;;9.60;6.00;;;;;;;30.25;35.47;97550.76;116291;1178;68534;-73
2021/08/23 08:13:35;;;;;;;9.70;6.10;;;;;;;30.16;35.54;97551.02;116045;1184;59536;-73
2021/08/23 08:16:06;;;;;;;9.30;5.60;;;;;;;30.26;35.42;97553.56;116307;1182;59525;-73
2021/08/23 08:18:39;;;;;;;9.50;5.70;;;;;;;30.44;35.27;97546.08;116305;1182;71469;-74
2021/08/23 08:21:14;;;;;;;7.70;5.20;;;;;;;30.73;34.47;97545.73;116335;1178;68412;-80
2021/08/23 08:23:45;;;;;;;9.60;5.60;;;;;;;30.60;34.59;97544.10;116234;1182;68210;-80
2021/08/23 08:26:17;;;;;;;6.90;5.30;;;;;;;30.54;35.03;97545.18;116360;1182;59504;-79
2021/08/23 08:28:52;;;;;;;8.30;5.60;;;;;;;30.70;34.56;97544.18;116279;1182;59550;-77
2021/08/23 08:31:22;;;;;;;8.70;5.70;;;;;;;31.01;33.86;97536.30;116306;1179;70365;-75
2021/08/23 08:33:53;;;;;;;8.20;5.60;;;;;;;31.33;33.13;97538.00;116330;1178;68268;-80
2021/08/23 08:36:24;;;;;;;8.30;5.30;;;;;;;31.63;33.58;97535.77;116333;1179;68477;-77
2021/08/23 08:38:55;;;;;;;11.60;5.50;;;;;;;31.95;32.09;97528.55;116287;1179;59554;-80
2021/08/23 08:41:33;;;;;;;7.00;5.40;;;;;;;31.98;31.72;97530.11;116201;1181;59537;-80
2021/08/23 08:44:05;;;;;;;7.80;5.40;;;;;;;32.00;30.27;97524.38;116327;1183;71471;-78
2021/08/23 08:46:36;;;;;;;12.10;6.00;;;;;;;31.70;30.58;97525.27;116334;1182;68428;-82
2021/08/23 08:49:11;;;;;;;9.40;6.30;;;;;;;31.37;30.99;97528.91;116330;1184;68494;-79
2021/08/23 08:51:45;;;;;;;7.50;5.20;;;;;;;31.50;30.69;97525.05;116349;1182;59546;-79
2021/08/23 08:54:17;;;;;;;9.00;5.70;;;;;;;31.54;31.08;97520.41;116318;1181;59557;-78
2021/08/23 08:56:48;;;;;;;9.80;5.70;;;;;;;31.79;30.76;97516.97;116389;1178;70832;-76
2021/08/23 08:59:18;;;;;;;8.50;5.80;;;;;;;32.06;30.25;97520.73;116340;1184;69152;-75
2021/08/23 09:01:51;;;;;;;10.00;5.90;;;;;;;31.72;30.73;97517.16;116306;1183;68322;-77
2021/08/23 09:04:37;;;;;;;15.50;6.20;;;;;;;31.77;30.89;97514.56;116322;1183;59561;-82
2021/08/23 09:07:13;;;;;;;9.10;6.40;;;;;;;31.84;30.75;97516.44;116404;1183;59499;-76
2021/08/23 09:09:45;;;;;;;8.50;6.10;;;;;;;31.51;30.75;97515.77;116351;1178;69784;-79
2021/08/23 09:12:16;;;;;;;10.90;6.20;;;;;;;31.43;31.26;97516.59;116378;1178;67839;-83
2021/08/23 09:14:52;;;;;;;9.20;5.90;;;;;;;31.73;30.38;97510.75;116300;1182;68387;-78
2021/08/23 09:17:29;;;;;;;9.60;6.00;;;;;;;31.47;31.11;97508.62;116246;1179;59521;-75
2021/08/23 09:20:06;;;;;;;11.30;5.80;;;;;;;31.74;31.24;97504.86;116366;1178;59543;-81
2021/08/23 09:22:43;;;;;;;10.90;6.10;;;;;;;31.71;31.07;97501.52;116364;1178;71513;-81
2021/08/23 09:25:16;;;;;;;8.10;6.00;;;;;;;31.56;31.09;97502.97;116315;1180;68588;-77
2021/08/23 09:27:46;;;;;;;9.20;6.20;;;;;;;31.55;31.41;97496.90;116309;1184;69171;-76
2021/08/23 09:30:18;;;;;;;9.70;6.40;;;;;;;31.63;31.46;97492.88;116231;1184;59567;-77
2021/08/23 09:32:50;;;;;;;7.70;6.10;;;;;;;31.69;30.99;97488.95;116294;1179;59576;-77
2021/08/23 09:35:36;;;;;;;8.60;6.00;;;;;;;31.46;30.85;97494.10;116360;1182;70558;-75
2021/08/23 09:38:10;;;;;;;11.80;5.80;;;;;;;31.48;30.85;97488.16;116359;1182;69185;-79
2021/08/23 09:40:53;;;;;;;9.80;6.60;;;;;;;31.72;30.52;97483.77;116305;1183;69188;-77
2021/08/23 09:43:30;;;;;;;9.20;5.70;;;;;;;31.95;30.85;97489.73;116334;1179;59528;-74
2021/08/23 09:46:11;;;;;;;12.80;6.10;;;;;;;32.31;30.62;97483.67;116348;1181;59583;-76
2021/08/23 09:48:55;;;;;;;;;;;;;;;32.75;29.01;97479.00;116336;1182;71358;-78
2021/08/23 09:51:28;;;;;;;10.00;6.30;;;;;;;32.56;29.61;97479.58;116440;1182;68442;-75
2021/08/23 09:54:10;;;;;;;9.60;6.30;;;;;;;32.46;29.68;97481.17;116327;1182;68491;-80
2021/08/23 09:56:48;;;;;;;7.90;6.30;;;;;;;32.19;30.44;97482.48;116322;1179;59568;-77
2021/08/23 09:59:27;;;;;;;8.80;6.50;;;;;;;32.04;30.10;97486.08;116339;1182;59505;-74
2021/08/23 10:02:03;;;;;;;10.90;5.70;;;;;;;32.10;29.88;97482.59;116400;1183;71358;-78
2021/08/23 10:04:39;;;;;;;12.20;5.90;;;;;;;32.21;30.22;97487.64;116392;1179;69040;-77
2021/08/23 10:07:18;;;;;;;10.70;5.90;;;;;;;32.51;29.46;97483.48;116265;1179;68800;-77
2021/08/23 10:09:49;;;;;;;8.80;6.30;;;;;;;32.56;29.27;97482.28;116337;1183;59459;-78
2021/08/23 10:12:23;;;;;;;11.40;6.00;;;;;;;32.45;29.69;97478.94;116320;1181;59495;-77
2021/08/23 10:14:54;;;;;;;9.00;6.10;;;;;;;32.71;29.37;97475.66;116432;1182;71258;-78
2021/08/23 10:17:36;;;;;;;8.70;6.30;;;;;;;33.01;29.86;97476.71;116300;1180;68407;-76
2021/08/23 10:20:10;;;;;;;7.80;5.80;;;;;;;32.88;29.87;97475.94;116320;1178;69086;-77
2021/08/23 10:22:41;;;;;;;7.90;6.00;;;;;;;33.19;28.88;97479.34;116266;1184;59551;-77
2021/08/23 10:25:12;;;;;;;8.20;5.70;;;;;;;33.19;28.00;97480.27;116338;1182;59549;-81
2021/08/23 10:27:43;;;;;;;7.90;5.40;;;;;;;32.94;28.28;97473.98;116334;1179;69842;-77
2021/08/23 10:30:26;;;;;;;9.00;5.50;;;;;;;33.11;27.50;97477.39;116359;1183;68958;-77
2021/08/23 10:33:10;;;;;;;16.60;6.40;;;;;;;33.12;27.78;97475.13;116268;1184;67849;-77
2021/08/23 10:35:49;;;;;;;8.40;6.00;;;;;;;33.17;27.84;97468.55;116255;1184;59538;-75
2021/08/23 10:38:25;;;;;;;8.10;5.60;;;;;;;33.38;27.50;97464.03;116257;1179;59545;-76
2021/08/23 10:41:08;;;;;;;11.00;6.20;;;;;;;33.77;26.79;97463.41;116326;1183;70527;-76
2021/08/23 10:44:00;;;;;;;7.90;6.10;;;;;;;33.94;26.45;97459.38;116264;1184;68277;-80
2021/08/23 10:46:41;;;;;;;9.20;5.40;;;;;;;34.23;25.69;97464.50;116298;1183;68533;-74
2021/08/23 10:49:20;;;;;;;9.50;5.80;;;;;;;34.05;25.76;97460.12;116317;1184;59532;-76
2021/08/23 10:51:58;;;;;;;10.70;5.90;;;;;;;34.17;25.96;97457.67;116336;1182;59511;-80
2021/08/23 10:54:36;;;;;;;7.20;5.80;;;;;;;34.16;25.78;97451.77;116271;1180;70604;-81
2021/08/23 10:57:10;;;;;;;9.80;5.90;;;;;;;33.92;25.47;97453.31;116282;1183;69228;-81
2021/08/23 10:59:47;;;;;;;11.60;5.90;;;;;;;33.43;26.35;97448.48;116138;1184;69047;-78
2021/08/23 11:02:26;;;;;;;8.70;5.70;;;;;;;33.36;26.17;97450.23;116319;1184;59555;-77
2021/08/23 11:05:01;;;;;;;10.30;5.60;;;;;;;33.14;26.75;97442.63;116356;1183;59537;-79
2021/08/23 11:07:33;;;;;;;7.10;6.20;;;;;;;33.39;26.38;97441.58;116195;1180;70666;-80
2021/08/23 11:10:16;;;;;;;8.40;5.80;;;;;;;33.06;26.36;97435.09;116067;1184;68262;-75
2021/08/23 11:12:52;;;;;;;8.80;5.90;;;;;;;33.65;26.14;97433.73;116420;1183;68463;-79
2021/08/23 11:15:29;;;;;;;7.90;5.50;;;;;;;34.35;25.25;97436.08;116064;1181;59533;-77
2021/08/23 11:18:13;;;;;;;8.60;5.30;;;;;;;34.35;25.61;97431.05;116316;1180;59578;-76
2021/08/23 11:20:48;;;;;;;8.40;6.40;;;;;;;34.48;24.23;97431.48;116340;1179;71543;-76
2021/08/23 11:23:25;;;;;;;8.00;5.90;;;;;;;33.64;25.89;97431.05;116395;1181;69717;-77
2021/08/23 11:25:59;;;;;;;7.80;6.10;;;;;;;34.14;25.30;97435.52;116124;1181;68562;-77
2021/08/23 11:28:31;;;;;;;8.00;5.70;;;;;;;34.57;24.36;97428.70;116281;1180;59526;-76
2021/08/23 11:31:05;;;;;;;7.20;5.90;;;;;;;34.71;24.87;97424.73;116390;1179;59533;-76
2021/08/23 11:33:40;;;;;;;10.10;6.70;;;;;;;34.57;24.79;97424.67;116235;1179;70470;-78
2021/08/23 11:36:20;;;;;;;11.80;6.20;;;;;;;34.34;24.72;97422.64;116388;1179;69286;-75
2021/08/23 11:38:51;;;;;;;15.30;6.10;;;;;;;34.36;24.92;97416.31;116359;1184;69079;-78
2021/08/23 11:41:23;;;;;;;7.30;6.00;;;;;;;34.62;24.81;97413.96;116148;1181;59549;-77
2021/08/23 11:44:02;;;;;;;10.70;6.00;;;;;;;34.64;23.97;97412.97;116164;1184;59492;-78
2021/08/23 11:46:33;;;;;;;10.70;6.20;;;;;;;34.56;24.66;97409.92;116131;1184;71381;-77